Flight Track Log - Related Links

Times and Time Zones

All times are in EDT time to prevent confusion due to time zone crossing. See the UAL1041 flight status page for this flight to view local times or setup timezone preferences in your user account.

Time Position Orientation Groundspeed Altitude Reporting Facility
EDT Latitude Longitude Course Direction KTS MPH feet Rate Location/Type
04:43PM 37.6333 -122.3500 67° East 188 216 900  Level Northern Cal TRACON
04:44PM 37.6833 -122.3000 38° Northeast 214 246 3,500 2,500 Climbing Northern Cal TRACON
04:45PM 37.7333 -122.2333 47° Northeast 259 298 5,900 2,667 Climbing Northern Cal TRACON
04:47PM 37.8048 -121.7832 70° East  Level FlightAware Approximate
04:47PM 37.7769 -122.0847 70° East 282 325 10,700  Level Oakland Center
04:48PM 37.8536 -121.6356 72° East  Level FlightAware Approximate
04:48PM 37.8086 -121.9742 70° East 320 368 12,200  Level Oakland Center
04:49PM 37.8984 -121.4884 67° East  Level FlightAware Approximate
04:49PM 37.8431 -121.8492 71° East 355 409 14,900  Level Oakland Center
04:50PM 37.8781 -121.7211 71° East 373 429 17,600 2,878 Climbing Oakland Center
04:51PM 37.9142 -121.5933 70° East 382 440 20,800 2,164 Climbing Oakland Center
04:52PM 37.9489 -121.4675 71° East 383 441 22,000 585 Climbing Oakland Center
04:53PM 37.9839 -121.3383 71° East 386 444 22,000  Level Oakland Center
04:54PM 38.0253 -121.1856 71° East 385 443 22,000 738 Level Oakland Center
04:55PM 38.0603 -121.0564 71° East 387 445 23,500 1,512 Climbing Oakland Center
04:56PM 38.0956 -120.9208 72° East 398 458 25,100 1,561 Climbing Oakland Center
04:57PM 38.1283 -120.7792 74° East 413 475 26,700 1,475 Climbing Oakland Center
04:58PM 38.1642 -120.6322 73° East 427 491 28,100 1,268 Climbing Oakland Center
04:59PM 38.1986 -120.4844 73° East 436 502 29,300 732 Climbing Oakland Center
05:00PM 38.2364 -120.3258 73° East 455 524 29,600 689 Climbing Oakland Center
05:01PM 38.2861 -120.1233 73° East 491 565 30,700 1,122 Climbing Oakland Center
05:02PM 38.3231 -119.9544 74° East 502 578 31,900 1,415 Climbing Oakland Center
05:03PM 38.3592 -119.7861 75° East 497 572 33,600 1,426 Climbing Oakland Center
05:04PM 38.3983 -119.6211 73° East 490 564 34,800 1,122 Climbing Oakland Center
05:05PM 38.4394 -119.4533 73° East 483 556 35,900 829 Climbing Oakland Center
05:06PM 38.4703 -119.2964 76° East 478 550 36,500 537 Climbing Oakland Center
05:07PM 38.5061 -119.1283 75° East 489 563 37,000 244 Climbing Oakland Center
05:08PM 38.5253 -118.9517 82° East 499 574 37,000  Level Oakland Center
05:09PM 38.5428 -118.7781 83° East 495 570 37,000  Level Oakland Center
05:10PM 38.5628 -118.5708 83° East 490 564 37,000  Level Oakland Center
05:11PM 38.5811 -118.3981 82° East 491 565 37,000  Level Oakland Center
05:12PM 38.5967 -118.2242 83° East 491 565 37,000  Level Oakland Center
05:13PM 38.6125 -118.0517 83° East 489 563 37,000  Level Oakland Center
05:14PM 38.6286 -117.8789 83° East 488 562 37,000  Level Oakland Center
05:15PM 38.6436 -117.7050 84° East 489 563 37,000  Level Oakland Center
05:16PM 38.6594 -117.5297 83° East 491 565 37,000  Level Oakland Center
05:17PM 38.6739 -117.3553 84° East 492 566 37,000  Level Oakland Center
05:18PM 38.6958 -117.1817 81° East 491 565 37,000  Level Oakland Center
05:19PM 38.7219 -117.0089 79° East 491 565 37,000  Level Salt Lake Center
05:20PM 38.7486 -116.8350 79° East 493 567 37,000  Level Salt Lake Center
05:22PM 38.7733 -116.6589 80° East 496 571 37,000  Level Salt Lake Center
05:23PM 38.8050 -116.4467 79° East 501 577 37,000  Level Oakland Center
05:24PM 38.8294 -116.2725 80° East 501 577 37,000  Level Salt Lake Center
05:25PM 38.8536 -116.1008 80° East 493 567 37,000  Level Salt Lake Center
05:26PM 38.8772 -115.9292 80° East 492 566 37,000  Level Salt Lake Center
05:27PM 38.9022 -115.7564 79° East 492 566 37,000  Level Salt Lake Center
05:28PM 38.9247 -115.5850 80° East 491 565 37,000  Level Salt Lake Center
05:29PM 38.9481 -115.4133 80° East 488 562 37,000  Level Salt Lake Center
05:30PM 38.9742 -115.2275 80° East 489 563 37,000  Level Salt Lake Center
05:31PM 38.9961 -115.0572 81° East 488 562 37,000  Level Salt Lake Center
05:32PM 39.0189 -114.8850 80° East 488 562 37,000  Level Salt Lake Center
05:33PM 39.0406 -114.7136 81° East 488 562 37,000  Level Salt Lake Center
05:34PM 39.0678 -114.5044 80° East 489 563 37,000  Level Salt Lake Center
05:35PM 39.0889 -114.3314 81° East 489 563 37,000  Level Salt Lake Center
05:36PM 39.1111 -114.1575 81° East 489 563 37,000  Level Salt Lake Center
05:37PM 39.1333 -113.9808 81° East 495 570 37,000  Level Salt Lake Center
05:38PM 39.1542 -113.8050 81° East 497 572 37,000  Level Salt Lake Center
05:39PM 39.1744 -113.6306 81° East 496 571 37,000  Level Salt Lake Center
05:40PM 39.1964 -113.4553 81° East 495 570 37,000  Level Salt Lake Center
05:41PM 39.2197 -113.2464 82° East 494 568 37,000  Level Salt Lake Center
05:42PM 39.2394 -113.0733 82° East 492 566 37,000  Level Salt Lake Center
05:43PM 39.2597 -112.8986 81° East 492 566 37,000  Level Salt Lake Center
05:44PM 39.2792 -112.7214 82° East 493 567 37,000  Level Salt Lake Center
05:45PM 39.2994 -112.5428 82° East 493 567 37,000  Level Salt Lake Center
05:46PM 39.3478 -112.3836 69° East 482 555 37,000  Level Salt Lake Center
05:47PM 39.4053 -112.2278 64° Northeast 483 556 37,000  Level Salt Lake Center
05:48PM 39.4631 -112.0708 64° Northeast 483 556 37,000  Level Salt Lake Center
05:49PM 39.5325 -111.8828 64° Northeast 486 559 37,000  Level Salt Lake Center
05:50PM 39.5886 -111.7247 65° Northeast 486 559 37,000  Level Salt Lake Center
05:51PM 39.6456 -111.5653 65° Northeast 487 560 37,000  Level Salt Lake Center
05:52PM 39.7019 -111.4058 65° Northeast 488 562 37,000  Level Salt Lake Center
05:53PM 39.7597 -111.2472 65° Northeast 492 566 37,000  Level Salt Lake Center
05:54PM 39.8242 -111.0683 65° Northeast 490 564 37,000  Level Salt Lake Center
05:55PM 39.8772 -110.9147 66° East 489 563 37,000  Level Salt Lake Center
05:57PM 39.9400 -110.7347 65° Northeast 488 562 37,000  Level Salt Lake Center
05:58PM 39.9933 -110.5800 66° East 488 562 37,000  Level Salt Lake Center
05:59PM 40.0558 -110.4008 65° Northeast 488 562 37,000  Level Salt Lake Center
06:00PM 40.1086 -110.2450 66° East 488 562 37,000  Level Salt Lake Center
06:01PM 40.1592 -110.0883 67° East 488 562 37,000  Level Salt Lake Center
06:02PM 40.2011 -109.8978 74° East 488 562 37,000  Level Salt Lake Center
06:03PM 40.2375 -109.7342 74° East 488 562 37,000  Level Salt Lake Center
06:04PM 40.2783 -109.5436 74° East 487 560 37,000  Level Salt Lake Center
06:05PM 40.3144 -109.3792 74° East 488 562 37,000  Level Salt Lake Center
06:06PM 40.3497 -109.2150 74° East 488 562 37,000  Level Salt Lake Center
06:07PM 40.3917 -109.0236 74° East 487 560 37,000  Level Salt Lake Center
06:08PM 40.4267 -108.8578 74° East 490 564 37,000  Level Salt Lake Center
06:09PM 40.4686 -108.6578 75° East 494 568 37,000  Level Salt Lake Center
06:10PM 40.5031 -108.4922 75° East 494 568 37,000  Level Salt Lake Center
06:11PM 40.5364 -108.3267 75° East 493 567 37,000  Level Salt Lake Center
06:12PM 40.5653 -108.1872 75° East 492 566 37,000  Level Denver Center
06:13PM 40.5936 -108.0489 75° East 492 566 37,000  Level Denver Center
06:14PM 40.6389 -107.8289 75° East 491 565 37,000  Level Denver Center
06:15PM 40.6728 -107.6639 75° East 490 564 37,000  Level Denver Center
06:16PM 40.7044 -107.4986 76° East 489 563 37,000  Level Denver Center
06:17PM 40.7431 -107.3067 75° East 488 562 37,000  Level Denver Center
06:18PM 40.7808 -107.1178 75° East 487 560 37,000  Level Denver Center
06:19PM 40.8072 -106.9781 76° East 488 562 37,000  Level Denver Center
06:20PM 40.8453 -106.7842 75° East 489 563 37,000  Level Denver Center
06:21PM 40.8825 -106.5892 76° East 490 564 37,000  Level Denver Center
06:22PM 40.9133 -106.4225 76° East 490 564 37,000  Level Denver Center
06:23PM 40.9506 -106.2281 76° East 491 565 37,000  Level Denver Center
06:24PM 40.9828 -106.0511 76° East 489 563 37,000  Level Denver Center
06:25PM 41.0156 -105.8736 76° East 490 564 37,000  Level Denver Center
06:26PM 41.0511 -105.6792 76° East 490 564 37,000  Level Denver Center
06:27PM 41.0808 -105.5072 77° East 495 570 37,000  Level Denver Center
06:28PM 41.1161 -105.3075 77° East 496 571 37,000  Level Denver Center
06:29PM 41.1461 -105.1375 77° East 497 572 37,000  Level Denver Center
06:30PM 41.1764 -104.9686 77° East 496 571 37,000  Level Denver Center
06:31PM 41.2053 -104.8017 77° East 492 566 37,000  Level Denver Center
06:32PM 41.2486 -104.6097 73° East 492 566 37,000  Level Denver Center
06:33PM 41.2942 -104.4183 72° East 491 565 37,000  Level Denver Center
06:34PM 41.3331 -104.2536 72° East 491 565 37,000  Level Denver Center
06:35PM 41.3769 -104.0608 73° East 491 565 37,000  Level Denver Center
06:36PM 41.4147 -103.8956 73° East 490 564 37,000  Level Denver Center
06:37PM 41.4592 -103.7031 73° East 490 564 37,000  Level Denver Center
06:39PM 41.4972 -103.5364 73° East 490 564 37,000  Level Denver Center
06:40PM 41.5467 -103.3156 73° East 490 564 37,000  Level Denver Center
06:41PM 41.5833 -103.1497 73° East 490 564 37,000  Level Denver Center
06:42PM 41.6253 -102.9536 74° East 490 564 37,000  Level Denver Center
06:43PM 41.6625 -102.7864 73° East 490 564 37,000  Level Denver Center
06:44PM 41.7039 -102.5894 74° East 491 565 37,000  Level Denver Center
06:45PM 41.7436 -102.4097 73° East 492 566 37,000  Level Denver Center
06:46PM 41.7831 -102.2256 74° East 492 566 37,000  Level Denver Center
06:47PM 41.8217 -102.0431 74° East 492 566 37,000  Level Denver Center
06:48PM 41.8569 -101.8733 74° East 492 566 37,000  Level Denver Center
06:49PM 41.8983 -101.6767 74° East 492 566 37,000  Level Denver Center
06:50PM 41.9328 -101.5083 75° East 489 563 37,000  Level Denver Center
06:51PM 41.9669 -101.3403 75° East 489 563 37,000  Level Denver Center
06:52PM 42.0058 -101.1433 75° East 488 562 37,000  Level Denver Center
06:53PM 42.0411 -100.9736 74° East 488 562 37,000  Level Denver Center
06:54PM 42.0789 -100.7761 75° East 489 563 37,000  Level Denver Center
06:55PM 42.1069 -100.6364 75° East 487 560 37,000  Level Denver Center
06:56PM 42.1400 -100.4672 75° East 487 560 37,000  Level Denver Center
06:57PM 42.1742 -100.2897 75° East 488 562 37,000  Level Minneapolis Center
06:58PM 42.2092 -100.1111 75° East 489 563 37,000  Level Minneapolis Center
06:59PM 42.2497 -99.8961 76° East 489 563 37,000  Level Minneapolis Center
07:00PM 42.2836 -99.7181 76° East 489 563 37,000  Level Minneapolis Center
07:01PM 42.3161 -99.5389 76° East 490 564 37,000  Level Minneapolis Center
07:02PM 42.3497 -99.3583 76° East 490 564 37,000  Level Minneapolis Center
07:03PM 42.3733 -99.1764 80° East 491 565 37,000  Level Minneapolis Center
07:04PM 42.3828 -98.9917 86° East 492 566 37,000  Level Minneapolis Center
07:05PM 42.3917 -98.8092 86° East 490 564 37,000  Level Minneapolis Center
07:06PM 42.4006 -98.6242 86° East 490 564 37,000  Level Minneapolis Center
07:07PM 42.4089 -98.4419 86° East 490 564 37,000  Level Minneapolis Center
07:08PM 42.4186 -98.2225 86° East 489 563 37,000  Level Minneapolis Center
07:09PM 42.4258 -98.0397 87° East 488 562 37,000  Level Minneapolis Center
07:10PM 42.4344 -97.8556 86° East 488 562 37,000  Level Minneapolis Center
07:11PM 42.4422 -97.6603 87° East 488 562 37,000  Level Minneapolis Center
07:12PM 42.4489 -97.4750 87° East 489 563 37,000  Level Minneapolis Center
07:13PM 42.4569 -97.2897 87° East 490 564 37,000  Level Minneapolis Center
07:14PM 42.4617 -97.1036 88° East 490 564 37,000  Level Minneapolis Center
07:16PM 42.4681 -96.9192 87° East 491 565 37,000  Level Minneapolis Center
07:17PM 42.4747 -96.7353 87° East 491 565 37,000  Level Minneapolis Center
07:18PM 42.4800 -96.5531 88° East 487 560 37,000  Level Minneapolis Center
07:19PM 42.4861 -96.3336 88° East 487 560 37,000  Level Minneapolis Center
07:20PM 42.4911 -96.1511 88° East 486 559 37,000  Level Minneapolis Center
07:21PM 42.4961 -95.9694 88° East 484 557 37,000  Level Minneapolis Center
07:22PM 42.4992 -95.7864 89° East 484 557 37,000  Level Minneapolis Center
07:23PM 42.5042 -95.6056 88° East 484 557 37,000  Level Minneapolis Center
07:24PM 42.5072 -95.4222 89° East 484 557 37,000  Level Minneapolis Center
07:25PM 42.5108 -95.2406 88° East 484 557 37,000  Level Minneapolis Center
07:26PM 42.5150 -95.0203 88° East 484 557 37,000  Level Minneapolis Center
07:27PM 42.5175 -94.8367 89° East 484 557 37,000  Level Minneapolis Center
07:28PM 42.5203 -94.6533 89° East 485 558 37,000  Level Minneapolis Center
07:29PM 42.5228 -94.4714 89° East 487 560 37,000  Level Minneapolis Center
07:30PM 42.5247 -94.2892 89° East 489 563 37,000  Level Minneapolis Center
07:31PM 42.5253 -94.1050 90° East 489 563 37,000  Level Minneapolis Center
07:32PM 42.5267 -93.8856 89° East 489 563 37,000  Level Minneapolis Center
07:33PM 42.5278 -93.7033 89° East 489 563 37,000  Level Minneapolis Center
07:34PM 42.5289 -93.5194 89° East 489 563 37,000  Level Minneapolis Center
07:35PM 42.5292 -93.3347 90° East 491 565 37,000  Level Minneapolis Center
07:36PM 42.5289 -93.1489 90° East 493 567 37,000  Level Minneapolis Center
07:37PM 42.5283 -92.9269 90° East 496 571 37,000  Level Minneapolis Center
07:38PM 42.5286 -92.7411 90° East 496 571 37,000 -919 Level Minneapolis Center
07:39PM 42.5267 -92.5569 91° East 496 571 35,100 -968 Descending Minneapolis Center
07:40PM 42.5267 -92.3747 90° East 493 567 35,000 -48 Descending Minneapolis Center
07:41PM 42.5253 -92.1947 91° East 489 563 35,000  Level Minneapolis Center
07:42PM 42.5244 -91.9819 90° East 482 555 35,000  Level Minneapolis Center
07:43PM 42.5258 -91.8033 89° East 481 554 35,000 -86 Level Minneapolis Center
07:45PM 42.5267 -91.5903 90° East 479 551 34,800 -553 Descending Chicago Center
07:46PM 42.5269 -91.3803 90° East 475 547 33,700 -968 Descending Chicago Center
07:47PM 42.5264 -91.2036 90° East 477 549 32,800 -919 Descending Chicago Center
07:48PM 42.5267 -91.0269 90° East 475 547 31,800 -864 Descending Chicago Center
07:49PM 42.5269 -90.8514 90° East 473 544 31,000 -384 Descending Chicago Center
07:50PM 42.5247 -90.6436 91° East 466 536 31,000  Level Chicago Center
07:51PM 42.5228 -90.4694 91° East 468 539 31,000 -97 Level Chicago Center
07:52PM 42.5219 -90.2958 90° East 466 536 30,800 -1,210 Descending Chicago Center
07:53PM 42.5206 -90.1300 91° East 448 516 28,500 -2,129 Descending Chicago Center
07:54PM 42.5203 -89.9711 90° East 430 495 26,400 -2,081 Descending Chicago Center
07:55PM 42.5175 -89.7783 91° East 413 475 24,200 -2,129 Descending Chicago Center
07:56PM 42.5156 -89.6322 91° East 394 453 22,000 -2,032 Descending Chicago Center
07:57PM 42.5128 -89.4825 91° East 398 458 20,000 -1,984 Descending Chicago Center
07:58PM 42.5106 -89.3375 91° East 389 448 17,900 -1,810 Descending Chicago Center
07:59PM 42.5089 -89.1997 91° East 373 429 16,200 -1,810 Descending Chicago Center
08:00PM 42.5069 -89.0378 91° East 363 418 14,100 -1,548 Descending Chicago Center
08:01PM 42.4997 -88.9086 94° East 348 400 13,000 -528 Descending Chicago Center
08:02PM 42.4703 -88.8100 112° Southeast 289 333 13,000  Level Chicago Center
08:03PM 42.4408 -88.7158 113° Southeast 275 316 13,000  Level Chicago Center
08:04PM 42.4128 -88.6242 112° Southeast 268 308 13,000  Level Chicago Center
08:05PM 42.3378 -88.6153 175° South 235 270 13,000 -242 Level Chicago Center
08:06PM 42.3211 -88.7003 255° West 236 272 12,500 -484 Descending Chicago Center
08:07PM 42.3494 -88.7942 292° West 265 305 12,000 -242 Descending Chicago Center
08:09PM 42.3767 -88.8839 292° West 262 302 12,000 -484 Level Chicago Center
08:10PM 42.4411 -88.9292 333° Northwest 299 344 11,000 -484 Descending Chicago Center
08:11PM 42.4878 -88.8558 49° Northeast 280 322 11,000  Level Chicago Center
08:12PM 42.4564 -88.7506 112° Southeast 251 289 11,000  Level Chicago Center
08:13PM 42.4256 -88.6644 116° Southeast 253 291 11,000  Level Chicago Center
08:14PM 42.3983 -88.5764 113° Southeast 255 293 11,000 -341 Level Chicago Center
08:15PM 42.3631 -88.5039 123° Southeast 237 273 10,300 -816 Descending Chicago Center
08:16PM 42.3131 -88.4297 132° Southeast 242 278 9,300 -1,016 Descending Chicago Center
08:17PM 42.2717 -88.3706 133° Southeast 201 231 8,200 -1,065 Descending Chicago Center
08:18PM 42.2264 -88.3581 168° South 169 194 7,100 -1,210 Descending Chicago Center
08:19PM 42.1792 -88.3544 177° South 160 184 5,700 -1,210 Descending Chicago Center
08:20PM 42.1367 -88.3578 183° South 153 176 4,600 -823 Descending Chicago Center
08:21PM 42.0911 -88.3742 195° South 155 178 4,000 -290 Descending Chicago Center
08:22PM 42.0497 -88.3864 192° South 154 177 4,000  Level Chicago Center
08:23PM 42.0158 -88.3561 146° Southeast 166 191 4,000  Level Chicago Center
08:24PM 42.0069 -88.2911 100° East 177 204 4,000  Level Chicago Center
08:25PM 41.9994 -88.2194 98° East 179 206 4,000  Level Chicago Center
08:26PM 42.0019 -88.1489 87° East 187 215 4,000 -484 Level Chicago Center
08:27PM 42.0022 -88.0797 90° East 186 214 3,000 -919 Descending Chicago Center
08:28PM 42.0017 -88.0183 91° East 158 182 2,100 -823 Descending Chicago Center
08:29PM 42.0017 -87.9672 90° East 140 161 1,300 -581 Descending Chicago Center
08:30PM 42.0017 -87.9106 90° East 142 163 900 -387 Descending Chicago Center

Login

Don't have an account? Register now (free) for customized features, flight alerts, and more!